createdAt,value
2023-03-13T00:00:02.029Z,99.9
2023-03-13T00:02:07.937Z,99.9
2023-03-13T00:06:22.597Z,99.9
2023-03-13T00:08:28.312Z,99.9
2023-03-13T00:10:34.141Z,99.9
2023-03-13T00:11:38.591Z,99.9
2023-03-13T00:13:44.436Z,99.9
2023-03-13T00:15:50.238Z,99.9
2023-03-13T00:22:10.662Z,99.9
2023-03-13T00:26:22.309Z,99.9
2023-03-13T00:30:33.893Z,99.9
2023-03-13T00:32:39.739Z,99.9
2023-03-13T00:34:48.450Z,99.9
2023-03-13T00:36:54.275Z,99.9
2023-03-13T00:39:00.109Z,99.9
2023-03-13T00:41:05.930Z,99.9
2023-03-13T00:47:23.402Z,99.9
2023-03-13T00:49:32.292Z,99.9
2023-03-13T00:53:43.818Z,99.9
2023-03-13T00:55:49.638Z,99.9
2023-03-13T00:57:55.460Z,99.9
2023-03-13T01:00:01.296Z,99.9
2023-03-13T01:02:07.168Z,99.9
2023-03-13T01:04:15.998Z,99.9
2023-03-13T01:06:21.822Z,99.9
2023-03-13T01:08:27.667Z,99.9
2023-03-13T01:09:32.111Z,99.9
2023-03-13T01:13:43.739Z,99.9
2023-03-13T01:15:49.621Z,99.9
2023-03-13T01:17:58.346Z,99.9
2023-03-13T01:20:04.178Z,99.9
2023-03-13T01:22:09.987Z,99.9
2023-03-13T01:26:21.652Z,99.9
2023-03-13T01:28:27.461Z,99.9
2023-03-13T01:30:33.244Z,99.9
2023-03-13T01:34:47.963Z,99.9
2023-03-13T01:38:59.587Z,99.9
2023-03-13T01:43:14.510Z,99.9
2023-03-13T01:45:17.048Z,99.9
2023-03-13T01:47:25.840Z,99.9
2023-03-13T01:53:43.306Z,99.9
2023-03-13T02:00:00.776Z,99.9
2023-03-13T02:02:09.639Z,99.9
2023-03-13T02:06:21.278Z,99.9
2023-03-13T02:07:25.724Z,99.9
2023-03-13T02:13:42.991Z,99.9
2023-03-13T02:15:51.820Z,99.9
2023-03-13T02:22:10.587Z,99.9
2023-03-13T02:26:22.215Z,99.9
2023-03-13T02:28:27.948Z,99.9
2023-03-13T02:30:36.643Z,99.9
2023-03-13T02:32:42.510Z,99.9
2023-03-13T02:36:53.793Z,99.9
2023-03-13T02:38:59.546Z,99.9
2023-03-13T02:41:05.262Z,99.9
2023-03-13T02:43:11.101Z,99.9
2023-03-13T02:45:19.915Z,99.9
2023-03-13T02:47:25.631Z,99.9
2023-03-13T02:51:37.201Z,99.9
2023-03-13T02:53:43.005Z,99.9
2023-03-13T02:55:48.849Z,99.9
2023-03-13T03:00:03.334Z,99.9
2023-03-13T03:02:09.035Z,99.9
2023-03-13T03:04:14.834Z,99.9
2023-03-13T03:06:34.702Z,99.9
2023-03-13T03:08:40.446Z,99.9
2023-03-13T03:10:46.132Z,99.9
2023-03-13T03:12:54.846Z,99.9
2023-03-13T03:19:12.157Z,99.9
2023-03-13T03:21:17.896Z,99.9
2023-03-13T03:23:23.628Z,99.9
2023-03-13T03:25:29.462Z,99.9
2023-03-13T03:27:38.155Z,99.9
2023-03-13T03:29:43.905Z,99.9
2023-03-13T03:31:49.677Z,99.9
2023-03-13T03:33:55.370Z,99.9
2023-03-13T03:36:01.176Z,99.9
2023-03-13T03:38:06.848Z,99.9
2023-03-13T03:40:12.567Z,99.9
2023-03-13T03:42:21.308Z,99.9
2023-03-13T03:44:27.017Z,99.9
2023-03-13T03:46:32.761Z,99.9
2023-03-13T03:48:38.520Z,99.9
2023-03-13T03:50:44.250Z,99.9
2023-03-13T03:52:50.001Z,99.9
2023-03-13T03:54:55.733Z,99.9
2023-03-13T03:57:04.442Z,99.9
2023-03-13T03:59:10.203Z,99.9
2023-03-13T04:01:15.921Z,99.9
2023-03-13T04:02:20.356Z,99.9
2023-03-13T04:06:31.800Z,99.9
2023-03-13T04:12:51.987Z,99.9
2023-03-13T04:14:57.756Z,99.9
2023-03-13T04:17:03.574Z,99.9
2023-03-13T04:21:15.035Z,99.9
2023-03-13T04:23:20.752Z,99.9
2023-03-13T04:25:29.465Z,99.9
2023-03-13T04:27:35.237Z,99.9
2023-03-13T04:29:40.986Z,99.9
2023-03-13T04:33:52.511Z,99.9
2023-03-13T04:35:58.287Z,99.9
2023-03-13T04:38:04.002Z,99.9
2023-03-13T04:40:12.718Z,99.9
2023-03-13T04:42:18.494Z,99.9
2023-03-13T04:44:24.230Z,99.9
2023-03-13T04:46:30.075Z,99.9
2023-03-13T04:48:35.729Z,99.9
2023-03-13T04:50:41.518Z,99.9
2023-03-13T04:52:49.531Z,99.9
2023-03-13T04:54:55.957Z,99.9
2023-03-13T04:57:01.698Z,99.9
2023-03-13T04:59:07.462Z,99.9
2023-03-13T05:00:11.830Z,99.9
2023-03-13T05:02:17.586Z,99.9
2023-03-13T05:04:23.331Z,99.9
2023-03-13T05:06:29.108Z,99.9
2023-03-13T05:08:37.827Z,99.9
2023-03-13T05:10:43.625Z,99.9
2023-03-13T05:12:49.347Z,99.9
2023-03-13T05:14:55.092Z,99.9
2023-03-13T05:21:12.362Z,99.9
2023-03-13T05:23:21.138Z,99.9
2023-03-13T05:27:32.653Z,99.9
2023-03-13T05:29:38.389Z,99.9
2023-03-13T05:31:44.134Z,99.9
2023-03-13T05:33:49.907Z,99.9
2023-03-13T05:35:55.724Z,99.9
2023-03-13T05:38:04.405Z,99.9
2023-03-13T05:40:10.211Z,99.9
2023-03-13T05:42:15.916Z,99.9
2023-03-13T05:44:21.687Z,99.9
2023-03-13T05:46:27.492Z,99.9
2023-03-13T05:48:33.192Z,99.9
2023-03-13T05:50:38.963Z,99.9
2023-03-13T05:52:47.685Z,99.9
2023-03-13T05:54:53.452Z,99.9
2023-03-13T05:56:59.241Z,99.9
2023-03-13T05:58:03.585Z,99.9
2023-03-13T06:02:15.121Z,99.9
2023-03-13T06:04:21.084Z,99.9
2023-03-13T06:06:29.608Z,99.9
2023-03-13T06:08:35.358Z,99.9
2023-03-13T06:10:41.107Z,99.9
2023-03-13T06:14:52.622Z,99.9
2023-03-13T06:16:58.399Z,99.9
2023-03-13T06:19:04.162Z,99.9
2023-03-13T06:25:24.398Z,99.9
2023-03-13T06:29:35.940Z,99.9
2023-03-13T06:31:41.861Z,99.9
2023-03-13T06:33:49.594Z,99.9
2023-03-13T06:35:57.110Z,99.9
2023-03-13T06:38:01.989Z,99.9
2023-03-13T06:40:07.738Z,99.9
2023-03-13T06:42:13.478Z,99.9
2023-03-13T06:44:19.272Z,99.9
2023-03-13T06:46:25.100Z,99.9
2023-03-13T06:48:30.800Z,99.9
2023-03-13T06:50:39.556Z,99.9
2023-03-13T06:52:45.295Z,99.9
2023-03-13T06:57:16.279Z,99.9
2023-03-13T06:59:22.031Z,99.9
2023-03-13T07:01:27.835Z,99.9
2023-03-13T07:03:36.557Z,99.9
2023-03-13T07:05:42.280Z,99.9
2023-03-13T07:07:48.040Z,99.9
2023-03-13T07:09:53.827Z,99.9
2023-03-13T07:11:59.575Z,99.9
2023-03-13T07:14:15.865Z,99.9
2023-03-13T07:16:11.226Z,99.9
2023-03-13T07:18:19.876Z,99.9
2023-03-13T07:20:25.647Z,99.9
2023-03-13T07:22:31.417Z,99.9
2023-03-13T07:24:37.237Z,99.9
2023-03-13T07:26:54.157Z,99.9
2023-03-13T07:28:48.704Z,99.9
2023-03-13T07:30:54.478Z,99.9
2023-03-13T07:33:03.280Z,99.9
2023-03-13T07:35:08.990Z,99.9
2023-03-13T07:37:14.784Z,99.9
2023-03-13T07:39:20.564Z,99.9
2023-03-13T07:41:26.332Z,99.9
2023-03-13T07:43:32.075Z,99.9
2023-03-13T07:45:37.879Z,99.9
2023-03-13T07:47:46.571Z,99.9
2023-03-13T07:49:52.374Z,99.9
2023-03-13T07:51:58.116Z,99.9
2023-03-13T07:57:14.028Z,99.9
2023-03-13T08:01:30.696Z,99.9
2023-03-13T08:03:34.412Z,99.9
2023-03-13T08:05:40.105Z,99.9
2023-03-13T08:07:45.873Z,99.9
2023-03-13T08:11:57.376Z,99.9
2023-03-13T08:14:03.174Z,99.9
2023-03-13T08:16:12.040Z,99.9
2023-03-13T08:18:17.685Z,99.9
2023-03-13T08:20:25.070Z,99.9
2023-03-13T08:22:30.771Z,99.9
2023-03-13T08:24:36.542Z,99.9
2023-03-13T08:28:48.085Z,99.9
2023-03-13T08:30:56.888Z,99.9
2023-03-13T08:33:02.713Z,99.9
2023-03-13T08:35:08.384Z,99.9
2023-03-13T08:37:14.169Z,99.9
2023-03-13T08:39:19.914Z,99.9
2023-03-13T08:41:25.711Z,99.9
2023-03-13T08:43:31.438Z,99.9
2023-03-13T08:45:40.182Z,99.9
2023-03-13T08:47:45.959Z,99.9
2023-03-13T08:49:51.722Z,99.9
2023-03-13T08:53:01.883Z,99.9
2023-03-13T08:55:07.612Z,99.9
2023-03-13T08:57:13.442Z,99.9
2023-03-13T08:59:22.173Z,99.9
2023-03-13T09:03:33.914Z,99.9
2023-03-13T09:05:54.908Z,99.9
2023-03-13T09:07:45.367Z,99.9
2023-03-13T09:09:51.156Z,99.9
2023-03-13T09:11:56.905Z,99.9
2023-03-13T09:14:05.678Z,99.9
2023-03-13T09:16:11.488Z,99.9
2023-03-13T09:18:17.260Z,99.9
2023-03-13T09:20:23.019Z,99.9
2023-03-13T09:22:28.782Z,99.9
2023-03-13T09:24:34.540Z,99.9
2023-03-13T09:26:46.546Z,99.9
2023-03-13T09:28:49.017Z,99.9
2023-03-13T09:30:54.899Z,99.9
2023-03-13T09:33:00.740Z,99.9
2023-03-13T09:35:06.368Z,99.9
2023-03-13T09:37:12.249Z,99.9
2023-03-13T09:39:17.938Z,99.9
2023-03-13T09:41:23.723Z,99.9
2023-03-13T09:43:32.462Z,99.9
2023-03-13T09:45:38.220Z,99.9
2023-03-13T09:47:44.031Z,99.9
2023-03-13T09:48:48.413Z,99.9
2023-03-13T09:52:59.976Z,99.9
2023-03-13T10:03:31.854Z,99.9
2023-03-13T10:09:49.164Z,99.9
2023-03-13T10:14:03.724Z,99.9
2023-03-13T10:16:09.582Z,99.9
2023-03-13T10:18:15.299Z,99.9
2023-03-13T10:20:21.188Z,99.9
2023-03-13T10:22:26.852Z,99.9
2023-03-13T10:24:32.636Z,99.9
2023-03-13T10:26:41.401Z,99.9
2023-03-13T10:28:47.190Z,99.9
2023-03-13T10:30:53.070Z,99.9
2023-03-13T10:32:58.802Z,99.9
2023-03-13T10:35:04.677Z,99.9
2023-03-13T10:37:10.368Z,99.9
2023-03-13T10:43:30.652Z,99.9
2023-03-13T10:48:07.693Z,99.9
2023-03-13T10:50:13.473Z,99.9
2023-03-13T10:56:33.790Z,99.9
2023-03-13T10:58:39.592Z,99.9
2023-03-13T11:00:45.393Z,99.9
2023-03-13T11:02:51.358Z,99.9
2023-03-13T11:04:56.948Z,99.9
2023-03-13T11:19:40.511Z,98.9
2023-03-13T11:21:46.272Z,98.4
2023-03-13T11:26:00.844Z,96.3
2023-03-13T11:28:06.621Z,95.8
2023-03-13T11:30:12.470Z,95.3
2023-03-13T11:32:18.292Z,94.9
2023-03-13T11:34:24.060Z,94.6
2023-03-13T11:36:29.832Z,94
2023-03-13T11:38:38.592Z,93.5
2023-03-13T11:40:44.405Z,93.5
2023-03-13T11:42:50.157Z,93.5
2023-03-13T11:46:00.475Z,93.6
2023-03-13T11:48:06.123Z,93.8
2023-03-13T11:52:20.669Z,94.1
2023-03-13T11:54:26.518Z,94.2
2023-03-13T11:56:32.272Z,94.3
2023-03-13T11:58:38.047Z,94.4
2023-03-13T12:00:43.864Z,94.7
2023-03-13T12:02:49.640Z,94.7
2023-03-13T12:04:55.567Z,94.8
2023-03-13T12:07:04.904Z,95.1
2023-03-13T12:09:09.990Z,95.2
2023-03-13T12:11:15.746Z,95.2
2023-03-13T12:13:21.544Z,95.4
2023-03-13T12:15:27.327Z,95.5
2023-03-13T12:28:05.138Z,96.2
2023-03-13T12:32:16.731Z,96.6
2023-03-13T12:40:42.765Z,95.5
2023-03-13T12:41:47.171Z,94.6
2023-03-13T12:44:07.214Z,94
2023-03-13T12:45:58.973Z,92.7
2023-03-13T12:48:04.600Z,90.6
2023-03-13T12:56:30.663Z,81.8
2023-03-13T12:58:36.446Z,81.8
2023-03-13T13:00:42.273Z,80.9
2023-03-13T13:02:48.049Z,80.5
2023-03-13T13:04:56.840Z,80.5
2023-03-13T13:09:08.385Z,80.3
2023-03-13T13:13:19.982Z,78.1
2023-03-13T13:17:31.547Z,76.1
2023-03-13T13:19:40.333Z,75.5
2023-03-13T13:21:46.106Z,75.1
2023-03-13T13:23:51.889Z,74.9
2023-03-13T13:25:57.829Z,74.4
2023-03-13T13:28:03.480Z,74.2
2023-03-13T13:30:09.247Z,74
2023-03-13T13:32:15.139Z,73.7
2023-03-13T13:34:23.830Z,74
2023-03-13T13:36:29.586Z,74.4
2023-03-13T13:38:35.399Z,74.8
2023-03-13T13:39:39.836Z,75.1
2023-03-13T13:43:51.328Z,75.5
2023-03-13T13:45:57.250Z,75.3
2023-03-13T13:50:11.744Z,76.3
2023-03-13T13:56:29.233Z,77
2023-03-13T13:58:34.854Z,76.8
2023-03-13T14:00:40.630Z,75.7
2023-03-13T14:02:49.413Z,74.1
2023-03-13T14:04:55.226Z,73.5
2023-03-13T14:07:00.984Z,72.6
2023-03-13T14:11:12.557Z,71.3
2023-03-13T14:13:18.337Z,71.3
2023-03-13T14:15:24.137Z,72.4
2023-03-13T14:17:32.875Z,75.8
2023-03-13T14:19:38.695Z,76.5
2023-03-13T14:21:44.477Z,76.7
2023-03-13T14:23:51.898Z,75.6
2023-03-13T14:25:57.611Z,74.2
2023-03-13T14:28:03.399Z,73.9
2023-03-13T14:30:09.443Z,73.4
2023-03-13T14:36:29.574Z,72.4
2023-03-13T14:39:00.798Z,72.3
2023-03-13T14:41:06.559Z,72.4
2023-03-13T14:43:12.373Z,72.3
2023-03-13T14:45:21.136Z,72.6
2023-03-13T14:47:27.005Z,72.6
2023-03-13T14:49:32.812Z,72.7
2023-03-13T14:51:38.501Z,72.7
2023-03-13T14:53:44.288Z,72.7
2023-03-13T14:55:50.080Z,73
2023-03-13T14:57:55.879Z,73.1
2023-03-13T15:02:10.475Z,73.6
2023-03-13T15:06:22.060Z,73.6
2023-03-13T15:08:27.856Z,73.7
2023-03-13T15:10:33.650Z,73.6
2023-03-13T15:12:39.430Z,73.7
2023-03-13T15:14:48.207Z,73.7
2023-03-13T15:16:54.053Z,73.8
2023-03-13T15:23:11.385Z,74
2023-03-13T15:29:31.751Z,74.4
2023-03-13T15:38:59.298Z,75
2023-03-13T15:41:05.096Z,75
2023-03-13T15:43:13.835Z,74.9
2023-03-13T15:45:19.677Z,74.9
2023-03-13T15:47:25.445Z,74.7
2023-03-13T15:49:31.217Z,74.6
2023-03-13T15:51:37.062Z,74.6
2023-03-13T15:53:42.828Z,74.7
2023-03-13T15:55:48.644Z,74.9
2023-03-13T16:00:03.196Z,75.6
2023-03-13T16:02:08.991Z,75.7
2023-03-13T16:04:14.850Z,75.9
2023-03-13T16:06:20.565Z,75.7
2023-03-13T16:10:32.175Z,75.4
2023-03-13T16:12:40.935Z,75.2
2023-03-13T16:14:46.742Z,75.3
2023-03-13T16:16:52.734Z,76
2023-03-13T16:18:58.291Z,76.4
2023-03-13T16:21:04.099Z,76.9
2023-03-13T16:23:09.908Z,77.3
2023-03-13T16:25:15.712Z,77.7
2023-03-13T16:29:30.270Z,79
2023-03-13T16:32:40.444Z,79.7
2023-03-13T16:34:46.236Z,79.8
2023-03-13T16:36:52.022Z,80.2
2023-03-13T16:38:57.875Z,80.4
2023-03-13T16:41:06.591Z,81
2023-03-13T16:43:12.356Z,81.3
2023-03-13T16:45:18.172Z,81.8
2023-03-13T16:47:23.957Z,81.9
2023-03-13T16:51:35.551Z,82.4
2023-03-13T16:53:41.365Z,82.7
2023-03-13T16:55:50.094Z,83.3
2023-03-13T16:57:55.900Z,83.7
2023-03-13T17:06:19.084Z,84.9
2023-03-13T17:08:24.848Z,85
2023-03-13T17:12:39.405Z,85.4
2023-03-13T17:14:45.241Z,85.5
2023-03-13T17:16:50.983Z,85.5
2023-03-13T17:21:02.592Z,85.8
2023-03-13T17:23:08.341Z,86.1
2023-03-13T17:25:17.100Z,86.5
2023-03-13T17:27:22.888Z,86.9
2023-03-13T17:30:33.042Z,87.4
2023-03-13T17:32:38.860Z,87.4
2023-03-13T17:34:44.695Z,87.7
2023-03-13T17:36:50.420Z,87.6
2023-03-13T17:38:59.162Z,88
2023-03-13T17:41:04.923Z,88.1
2023-03-13T17:43:10.714Z,88.4
2023-03-13T17:45:16.500Z,88.6
2023-03-13T17:47:22.290Z,88.8
2023-03-13T17:49:28.068Z,88.9
2023-03-13T17:51:33.870Z,89.1
2023-03-13T17:53:42.606Z,89.3
2023-03-13T17:59:59.971Z,89.7
2023-03-13T18:04:11.503Z,90
2023-03-13T18:06:17.303Z,90.1
2023-03-13T18:08:26.028Z,90.4
2023-03-13T18:10:31.788Z,90.5
2023-03-13T18:12:37.563Z,90.7
2023-03-13T18:14:43.350Z,90.7
2023-03-13T18:16:49.132Z,90.8
2023-03-13T18:18:54.926Z,90.8
2023-03-13T18:21:00.681Z,90.9
2023-03-13T18:23:09.416Z,91.1
2023-03-13T18:25:15.221Z,91.2
2023-03-13T18:27:21.010Z,91.2
2023-03-13T18:29:52.288Z,91.2
2023-03-13T18:34:03.844Z,91.4
2023-03-13T18:36:12.600Z,91.4
2023-03-13T18:38:18.401Z,91.5
2023-03-13T18:42:29.957Z,91.6
2023-03-13T18:46:41.511Z,91.7
2023-03-13T18:53:01.822Z,92.1
2023-03-13T18:59:19.130Z,92.4
2023-03-13T19:01:25.045Z,92.5
2023-03-13T19:03:30.687Z,92.6
2023-03-13T19:05:39.427Z,92.7
2023-03-13T19:07:45.218Z,92.8
2023-03-13T19:09:50.967Z,92.8
2023-03-13T19:11:56.732Z,92.9
2023-03-13T19:14:02.544Z,93
2023-03-13T19:16:08.393Z,93.1
2023-03-13T19:18:14.092Z,93.2
2023-03-13T19:20:22.839Z,93.5
2023-03-13T19:22:28.579Z,93.5
2023-03-13T19:24:34.367Z,93.6
2023-03-13T19:29:50.278Z,94
2023-03-13T19:34:04.767Z,94.2
2023-03-13T19:36:10.516Z,94.3
2023-03-13T19:38:16.304Z,94.3
2023-03-13T19:40:22.059Z,94.3
2023-03-13T19:42:27.814Z,94.3
2023-03-13T19:44:33.573Z,94.3
2023-03-13T19:46:39.338Z,94.5
2023-03-13T19:48:48.070Z,94.6
2023-03-13T19:50:53.851Z,94.8
2023-03-13T19:52:59.612Z,94.8
2023-03-13T19:55:05.642Z,95
2023-03-13T19:57:11.151Z,95
2023-03-13T19:59:16.920Z,95
2023-03-13T20:01:22.801Z,95
2023-03-13T20:03:31.410Z,95
2023-03-13T20:05:37.198Z,95
2023-03-13T20:07:42.936Z,95
2023-03-13T20:09:48.737Z,95
2023-03-13T20:11:54.477Z,95.1
2023-03-13T20:14:00.259Z,95.1
2023-03-13T20:16:06.108Z,95.2
2023-03-13T20:18:14.755Z,95.4
2023-03-13T20:20:20.546Z,95.5
2023-03-13T20:22:26.280Z,95.5
2023-03-13T20:27:43.724Z,95.7
2023-03-13T20:29:49.484Z,95.8
2023-03-13T20:34:03.984Z,96.3
2023-03-13T20:36:09.803Z,96.4
2023-03-13T20:38:15.519Z,96.6
2023-03-13T20:40:21.268Z,96.6
2023-03-13T20:42:27.039Z,96.6
2023-03-13T20:44:32.767Z,96.6
2023-03-13T20:46:41.536Z,96.4
2023-03-13T20:48:47.265Z,96.3
2023-03-13T20:50:53.013Z,96.1
2023-03-13T20:52:58.781Z,96.1
2023-03-13T20:55:04.530Z,95.9
2023-03-13T20:57:10.309Z,95.9
2023-03-13T20:59:16.058Z,95.8
2023-03-13T21:01:25.718Z,95.7
2023-03-13T21:03:30.530Z,95.7
2023-03-13T21:07:42.052Z,95.7
2023-03-13T21:11:53.575Z,95.8
2023-03-13T21:13:59.302Z,95.9
2023-03-13T21:18:13.795Z,95.9
2023-03-13T21:20:19.593Z,95.8
2023-03-13T21:21:23.942Z,95.7
2023-03-13T21:23:29.694Z,95.6
2023-03-13T21:25:35.479Z,95.6
2023-03-13T21:27:41.208Z,95.4
2023-03-13T21:31:55.809Z,95.3
2023-03-13T21:34:01.467Z,95.2
2023-03-13T21:46:39.100Z,94.4
2023-03-13T21:50:50.545Z,94.2
2023-03-13T21:52:56.297Z,94.1
2023-03-13T21:55:02.045Z,94.2
2023-03-13T21:57:07.825Z,94.1
2023-03-13T21:59:16.579Z,94.2
2023-03-13T22:01:22.366Z,94.2
2023-03-13T22:05:33.852Z,94.2
2023-03-13T22:07:39.618Z,94.3
2023-03-13T22:09:45.386Z,94.3
2023-03-13T22:11:51.144Z,94.4
2023-03-13T22:13:59.994Z,94.7
2023-03-13T22:16:05.674Z,94.9
2023-03-13T22:18:11.423Z,95
2023-03-13T22:33:20.366Z,95.1
2023-03-13T22:35:26.108Z,95
2023-03-13T22:37:31.864Z,95
2023-03-13T22:39:37.634Z,95
2023-03-13T22:41:46.385Z,95
2023-03-13T22:43:52.140Z,95
2023-03-13T22:48:03.660Z,94.9
2023-03-13T22:50:09.440Z,95
2023-03-13T22:54:20.966Z,95.1
2023-03-13T22:56:29.721Z,95.2
2023-03-13T22:58:35.492Z,95.2
2023-03-13T23:00:41.236Z,95.3
2023-03-13T23:02:47.019Z,95.4
2023-03-13T23:04:52.796Z,95.5
2023-03-13T23:09:04.306Z,95.9
2023-03-13T23:11:13.083Z,96.4
2023-03-13T23:13:18.827Z,96.7
2023-03-13T23:16:28.974Z,97.2
2023-03-13T23:18:34.726Z,97.5
2023-03-13T23:20:40.490Z,97.8
2023-03-13T23:22:46.253Z,98.1
2023-03-13T23:24:54.994Z,98.7
2023-03-13T23:27:00.762Z,99
2023-03-13T23:29:06.566Z,99.2
2023-03-13T23:31:12.285Z,99.5
2023-03-13T23:33:18.044Z,99.6
2023-03-13T23:35:23.814Z,99.7
2023-03-13T23:37:29.581Z,99.8
2023-03-13T23:41:44.104Z,99.9
2023-03-13T23:43:49.868Z,99.9
2023-03-13T23:45:55.613Z,99.9
2023-03-13T23:48:01.378Z,99.9
2023-03-13T23:50:07.136Z,99.9
2023-03-13T23:58:33.212Z,99.9
